createdAt,value
2022-12-06T00:03:26.047Z,4.35
2022-12-06T00:08:27.871Z,4.25
2022-12-06T00:13:30.008Z,5.03
2022-12-06T00:18:33.452Z,4.90
2022-12-06T00:23:39.736Z,5.30
2022-12-06T00:28:42.114Z,4.50
2022-12-06T00:33:44.551Z,4.90
2022-12-06T00:38:47.214Z,4.43
2022-12-06T00:43:49.911Z,5.05
2022-12-06T00:48:53.053Z,4.78
2022-12-06T00:53:55.448Z,6.32
2022-12-06T00:58:57.328Z,4.85
2022-12-06T01:04:01.525Z,5.90
2022-12-06T01:09:08.002Z,5.22
2022-12-06T01:14:09.677Z,6.17
2022-12-06T01:19:12.752Z,5.28
2022-12-06T01:24:14.511Z,5.63
2022-12-06T01:29:16.199Z,6.13
2022-12-06T01:34:18.011Z,6.32
2022-12-06T01:39:21.104Z,6.93
2022-12-06T01:44:41.064Z,7.65
2022-12-06T01:49:45.742Z,9.68
2022-12-06T01:54:47.494Z,10.88
2022-12-06T01:59:49.137Z,10.93
2022-12-06T02:04:52.343Z,12.13
2022-12-06T02:09:55.099Z,10.38
2022-12-06T02:14:56.851Z,9.73
2022-12-06T02:20:14.322Z,8.98
2022-12-06T02:25:46.514Z,9.18
2022-12-06T02:31:23.492Z,8.32
2022-12-06T02:36:34.702Z,8.70
2022-12-06T02:41:42.696Z,8.57
2022-12-06T02:46:45.126Z,7.90
2022-12-06T02:51:48.949Z,9.27
2022-12-06T02:56:50.616Z,11.05
2022-12-06T03:01:59.661Z,9.82
2022-12-06T03:07:07.288Z,10.38
2022-12-06T03:12:23.157Z,11.45
2022-12-06T03:17:33.575Z,11.02
2022-12-06T03:22:45.469Z,10.20
2022-12-06T03:27:48.666Z,12.35
2022-12-06T03:32:51.396Z,8.40
2022-12-06T03:38:03.245Z,9.05
2022-12-06T03:43:05.921Z,9.05
2022-12-06T03:48:14.919Z,9.82
2022-12-06T03:53:18.720Z,8.23
2022-12-06T03:58:20.463Z,8.60
2022-12-06T04:03:22.135Z,8.38
2022-12-06T04:08:23.907Z,6.15
2022-12-06T04:13:26.362Z,5.85
2022-12-06T04:18:28.274Z,4.65
2022-12-06T04:23:31.913Z,4.78
2022-12-06T04:28:52.801Z,5.82
2022-12-06T04:34:12.822Z,7.25
2022-12-06T04:39:19.211Z,6.38
2022-12-06T04:44:22.439Z,8.25
2022-12-06T04:49:26.268Z,7.80
2022-12-06T04:54:30.025Z,9.82
2022-12-06T04:59:31.675Z,10.00
2022-12-06T05:04:33.794Z,8.57
2022-12-06T05:09:35.457Z,8.60
2022-12-06T05:14:37.127Z,8.88
2022-12-06T05:19:38.712Z,8.32
2022-12-06T05:24:40.326Z,9.98
2022-12-06T05:29:42.364Z,9.50
2022-12-06T05:34:44.026Z,9.57
2022-12-06T05:39:45.598Z,9.00
2022-12-06T05:44:47.245Z,10.00
2022-12-06T05:49:48.921Z,9.68
2022-12-06T05:54:50.636Z,10.05
2022-12-06T05:59:52.635Z,11.20
2022-12-06T06:04:54.238Z,11.25
2022-12-06T06:09:55.925Z,11.88
2022-12-06T06:14:57.599Z,12.88
2022-12-06T06:19:59.383Z,13.00
2022-12-06T06:25:02.217Z,16.05
2022-12-06T06:30:11.151Z,13.60
2022-12-06T06:35:12.973Z,15.18
2022-12-06T06:40:14.673Z,14.98
2022-12-06T06:45:16.436Z,15.52
2022-12-06T06:50:18.228Z,13.18
2022-12-06T06:55:20.478Z,12.20
2022-12-06T07:00:22.230Z,12.75
2022-12-06T07:05:24.136Z,11.70
2022-12-06T07:10:27.320Z,10.77
2022-12-06T07:15:28.990Z,11.02
2022-12-06T07:20:30.628Z,10.43
2022-12-06T07:25:32.525Z,12.15
2022-12-06T07:30:34.426Z,13.07
2022-12-06T07:36:10.151Z,16.15
2022-12-06T07:41:04.795Z,12.38
2022-12-06T07:46:11.866Z,10.98
2022-12-06T07:51:13.812Z,11.07
2022-12-06T07:56:15.490Z,9.95
2022-12-06T08:01:18.151Z,12.10
2022-12-06T08:06:19.771Z,11.20
2022-12-06T08:11:22.871Z,12.80
2022-12-06T08:16:24.572Z,12.15
2022-12-06T08:21:26.869Z,11.27
2022-12-06T08:26:28.535Z,14.40
2022-12-06T08:31:31.353Z,11.55
2022-12-06T08:36:33.328Z,11.55
2022-12-06T08:41:53.415Z,12.13
2022-12-06T08:46:56.035Z,11.30
2022-12-06T08:51:59.552Z,11.07
2022-12-06T08:57:01.263Z,11.90
2022-12-06T09:02:03.287Z,11.38
2022-12-06T09:07:10.108Z,12.38
2022-12-06T09:12:13.720Z,11.57
2022-12-06T09:17:15.589Z,11.48
2022-12-06T09:22:17.273Z,12.27
2022-12-06T09:27:19.898Z,12.38
2022-12-06T09:32:21.570Z,13.40
2022-12-06T09:37:23.374Z,13.10
2022-12-06T09:42:33.965Z,16.63
2022-12-06T09:47:48.063Z,12.15
2022-12-06T09:53:11.425Z,11.80
2022-12-06T09:58:28.179Z,9.52
2022-12-06T10:03:40.872Z,10.43
2022-12-06T10:08:59.368Z,12.15
2022-12-06T10:14:13.320Z,10.07
2022-12-06T10:19:56.604Z,11.70
2022-12-06T10:25:13.232Z,11.95
2022-12-06T10:30:16.181Z,12.20
2022-12-06T10:35:42.383Z,11.55
2022-12-06T10:41:02.391Z,11.33
2022-12-06T10:46:38.303Z,10.23
2022-12-06T10:51:42.793Z,10.00
2022-12-06T10:56:45.288Z,10.07
2022-12-06T11:01:48.934Z,9.57
2022-12-06T11:06:55.652Z,9.23
2022-12-06T11:11:57.558Z,8.98
2022-12-06T11:17:23.551Z,10.05
2022-12-06T11:22:41.107Z,10.38
2022-12-06T11:27:51.457Z,10.15
2022-12-06T11:32:53.254Z,9.70
2022-12-06T11:38:02.386Z,11.05
2022-12-06T11:43:08.439Z,12.45
2022-12-06T11:48:17.283Z,11.13
2022-12-06T11:53:28.065Z,10.65
2022-12-06T11:58:46.933Z,10.10
2022-12-06T12:03:48.685Z,11.05
2022-12-06T12:09:05.990Z,10.75
2022-12-06T12:14:18.012Z,9.68
2022-12-06T12:19:41.119Z,10.27
2022-12-06T12:30:27.461Z,8.95
2022-12-06T12:35:29.259Z,9.45
2022-12-06T12:40:40.618Z,8.85
2022-12-06T12:46:04.172Z,10.02
2022-12-06T12:51:37.610Z,10.77
2022-12-06T12:56:39.369Z,10.05
2022-12-06T13:01:58.803Z,10.02
2022-12-06T13:07:08.113Z,9.88
2022-12-06T13:12:34.315Z,11.82
2022-12-06T13:17:37.968Z,11.83
2022-12-06T13:22:45.388Z,10.95
2022-12-06T13:27:52.678Z,15.05
2022-12-06T13:38:26.718Z,14.77
2022-12-06T13:43:28.706Z,13.68
2022-12-06T13:48:33.477Z,12.75
2022-12-06T13:54:04.381Z,13.30
2022-12-06T13:59:11.893Z,11.85
2022-12-06T14:10:07.960Z,12.70
2022-12-06T14:15:17.946Z,12.38
2022-12-06T14:20:23.439Z,12.30
2022-12-06T14:25:28.670Z,11.43
2022-12-06T14:30:30.899Z,11.30
2022-12-06T14:35:36.086Z,11.10
2022-12-06T14:41:02.196Z,10.63
2022-12-06T14:46:11.838Z,10.10
2022-12-06T14:51:23.190Z,9.80
2022-12-06T14:56:30.844Z,9.55
2022-12-06T15:01:32.660Z,9.73
2022-12-06T15:06:36.220Z,8.77
2022-12-06T15:11:58.846Z,9.40
2022-12-06T15:17:00.467Z,8.85
2022-12-06T15:22:04.147Z,10.57
2022-12-06T15:27:05.824Z,11.20
2022-12-06T15:32:14.140Z,10.07
2022-12-06T15:37:38.284Z,8.73
2022-12-06T15:42:38.817Z,7.93
2022-12-06T15:47:40.960Z,7.20
2022-12-06T15:52:43.087Z,9.05
2022-12-06T15:57:45.171Z,8.68
2022-12-06T16:02:50.181Z,9.07
2022-12-06T16:07:57.350Z,8.52
2022-12-06T16:13:17.814Z,8.98
2022-12-06T16:18:25.804Z,7.93
2022-12-06T16:29:25.905Z,7.57
2022-12-06T16:34:30.533Z,6.75
2022-12-06T16:39:34.619Z,5.78
2022-12-06T16:44:50.899Z,5.80
2022-12-06T16:49:53.115Z,5.95
2022-12-06T16:54:54.858Z,6.25
2022-12-06T16:59:56.528Z,5.38
2022-12-06T17:05:07.484Z,5.68
2022-12-06T17:10:09.452Z,5.35
2022-12-06T17:15:24.373Z,6.13
2022-12-06T17:20:26.040Z,5.30
2022-12-06T17:25:27.762Z,4.78
2022-12-06T17:30:29.537Z,5.30
2022-12-06T17:35:32.228Z,4.93
2022-12-06T17:40:33.938Z,5.13
2022-12-06T17:45:35.905Z,4.95
2022-12-06T17:50:37.701Z,4.95
2022-12-06T17:55:39.585Z,4.32
2022-12-06T18:00:41.371Z,4.10
2022-12-06T18:05:44.925Z,3.95
2022-12-06T18:10:46.646Z,4.28
2022-12-06T18:15:48.460Z,3.70
2022-12-06T18:20:50.470Z,5.53
2022-12-06T18:25:52.143Z,2.58
2022-12-06T18:30:53.991Z,2.22
2022-12-06T18:35:55.853Z,8.70
2022-12-06T18:41:11.224Z,4.00
2022-12-06T18:46:15.883Z,3.28
2022-12-06T18:51:20.367Z,2.25
2022-12-06T18:56:24.465Z,2.05
2022-12-06T19:01:31.571Z,2.40
2022-12-06T19:11:41.973Z,2.80
2022-12-06T19:16:46.806Z,2.40
2022-12-06T19:21:51.047Z,3.30
2022-12-06T19:26:54.585Z,4.47
2022-12-06T19:31:56.572Z,2.17
2022-12-06T19:36:58.627Z,2.40
2022-12-06T19:42:18.764Z,2.45
2022-12-06T19:47:20.484Z,2.03
2022-12-06T19:52:25.366Z,1.92
2022-12-06T19:57:31.019Z,2.03
2022-12-06T20:02:32.659Z,1.60
2022-12-06T20:07:34.416Z,1.60
2022-12-06T20:12:36.088Z,1.90
2022-12-06T20:17:37.709Z,2.17
2022-12-06T20:22:39.305Z,2.60
2022-12-06T20:27:53.265Z,2.00
2022-12-06T20:32:54.958Z,2.28
2022-12-06T20:37:56.804Z,2.45
2022-12-06T20:42:58.522Z,2.42
2022-12-06T20:48:00.204Z,2.78
2022-12-06T20:53:02.356Z,3.25
2022-12-06T20:58:04.003Z,3.65
2022-12-06T21:03:05.752Z,3.65
2022-12-06T21:08:07.516Z,3.03
2022-12-06T21:13:09.174Z,2.28
2022-12-06T21:18:10.833Z,2.40
2022-12-06T21:23:12.572Z,2.60
2022-12-06T21:28:14.288Z,2.78
2022-12-06T21:33:15.955Z,3.05
2022-12-06T21:38:18.443Z,2.90
2022-12-06T21:43:20.092Z,3.95
2022-12-06T21:48:21.785Z,4.60
2022-12-06T21:53:23.464Z,4.07
2022-12-06T21:58:26.241Z,4.03
2022-12-06T22:03:27.995Z,4.85
2022-12-06T22:08:29.988Z,5.13
2022-12-06T22:13:31.598Z,5.57
2022-12-06T22:18:35.550Z,6.45
2022-12-06T22:23:39.665Z,8.77
2022-12-06T22:28:41.363Z,8.13
2022-12-06T22:33:43.295Z,12.80
2022-12-06T22:38:52.040Z,16.00
2022-12-06T22:43:57.385Z,13.45
2022-12-06T22:49:01.168Z,15.52
2022-12-06T22:54:09.167Z,15.35
2022-12-06T22:59:10.959Z,16.00
2022-12-06T23:04:12.692Z,18.70
2022-12-06T23:09:16.296Z,16.80
2022-12-06T23:14:18.473Z,17.58
2022-12-06T23:19:20.165Z,16.38
2022-12-06T23:24:21.855Z,15.20
2022-12-06T23:29:23.524Z,14.30
2022-12-06T23:34:26.749Z,15.65
2022-12-06T23:39:28.661Z,14.00
2022-12-06T23:44:30.290Z,13.18
2022-12-06T23:49:32.104Z,11.60
2022-12-06T23:54:33.790Z,12.60
2022-12-06T23:59:35.402Z,12.80
